Augusta, New Jersey
Current Conditions -  °F | °C
As of 3:53 PM on Friday 31 Oct 2014 (Local Time) from KFWN Reporting Station
Overcast Overcast  
Wind Chill: 52°   Ceiling: 5500
Heat Index: 52°   Visibility: 10mi
Dew Point: 35°   Wind: 8mph
Humidity: 53%   Direction: 30°NNE
Pressure: 29.9"   Gusts: NA
Location:  41.13°N, 74.73°W
Report Text: KFWN 311953Z AUTO 03007KT 10SM OVC055 11/02 A2990 RMK AO2 SLP128 T01110017
Loading
Personal Weather Stations






























Interactive Weather Map New forecast layout! Learn more

10-Day Weather Forecast

Advertisements
Track Severe Weather on mobile